createdAt,value
2018-06-29T00:00:24.326Z,69.40
2018-06-29T00:02:51.900Z,69.60
2018-06-29T00:05:19.444Z,69.60
2018-06-29T00:07:47.028Z,70.00
2018-06-29T00:10:21.885Z,70.00
2018-06-29T00:12:49.639Z,70.00
2018-06-29T00:15:17.201Z,70.20
2018-06-29T00:17:44.948Z,70.20
2018-06-29T00:22:40.175Z,70.60
2018-06-29T00:25:07.781Z,70.80
2018-06-29T00:27:35.421Z,70.70
2018-06-29T00:30:03.090Z,70.90
2018-06-29T00:32:30.695Z,71.20
2018-06-29T00:34:58.269Z,71.30
2018-06-29T00:37:25.819Z,71.30
2018-06-29T00:39:53.501Z,71.30
2018-06-29T00:42:21.073Z,71.40
2018-06-29T00:44:48.652Z,71.80
2018-06-29T00:47:16.185Z,71.80
2018-06-29T00:49:43.835Z,71.80
2018-06-29T00:52:11.381Z,71.90
2018-06-29T00:54:38.935Z,72.00
2018-06-29T00:57:06.541Z,72.00
2018-06-29T00:59:34.113Z,71.90
2018-06-29T01:02:01.709Z,72.00
2018-06-29T01:04:29.307Z,71.90
2018-06-29T01:06:56.868Z,71.90
2018-06-29T01:09:24.401Z,71.80
2018-06-29T01:11:52.093Z,71.50
2018-06-29T01:14:19.725Z,71.50
2018-06-29T01:16:47.332Z,71.20
2018-06-29T01:19:14.870Z,71.00
2018-06-29T01:21:42.454Z,70.60
2018-06-29T01:24:10.110Z,69.90
2018-06-29T01:26:37.726Z,69.70
2018-06-29T01:29:05.333Z,69.50
2018-06-29T01:31:32.929Z,69.30
2018-06-29T01:34:00.497Z,69.30
2018-06-29T01:36:28.649Z,69.10
2018-06-29T01:38:56.247Z,69.00
2018-06-29T01:41:23.905Z,68.90
2018-06-29T01:43:51.433Z,68.90
2018-06-29T01:46:19.069Z,69.00
2018-06-29T01:48:46.685Z,69.10
2018-06-29T01:51:14.253Z,69.20
2018-06-29T01:53:41.793Z,68.90
2018-06-29T01:56:09.469Z,68.80
2018-06-29T01:58:37.015Z,68.70
2018-06-29T02:01:04.649Z,68.90
2018-06-29T02:03:32.261Z,68.90
2018-06-29T02:05:59.901Z,68.80
2018-06-29T02:08:27.492Z,69.00
2018-06-29T02:10:55.198Z,69.00
2018-06-29T02:13:22.768Z,69.00
2018-06-29T02:15:50.339Z,69.00
2018-06-29T02:18:24.852Z,69.20
2018-06-29T02:20:52.428Z,69.20
2018-06-29T02:23:19.982Z,69.20
2018-06-29T02:25:47.563Z,69.20
2018-06-29T02:28:15.120Z,69.30
2018-06-29T02:30:42.720Z,69.40
2018-06-29T02:33:10.284Z,69.60
2018-06-29T02:35:37.873Z,69.50
2018-06-29T02:38:05.873Z,69.60
2018-06-29T02:40:33.497Z,69.70
2018-06-29T02:43:01.155Z,69.80
2018-06-29T02:45:28.769Z,70.00
2018-06-29T02:47:56.393Z,70.20
2018-06-29T02:50:24.057Z,70.30
2018-06-29T02:52:51.641Z,70.50
2018-06-29T02:55:19.289Z,70.60
2018-06-29T02:57:46.806Z,71.40
2018-06-29T03:00:14.405Z,70.80
2018-06-29T03:02:42.101Z,71.00
2018-06-29T03:07:37.269Z,71.10
2018-06-29T03:10:05.009Z,71.20
2018-06-29T03:12:32.589Z,71.30
2018-06-29T03:15:00.191Z,71.30
2018-06-29T03:17:28.411Z,71.40
2018-06-29T03:19:55.984Z,71.40
2018-06-29T03:22:23.704Z,71.50
2018-06-29T03:24:51.312Z,71.60
2018-06-29T03:27:18.876Z,71.60
2018-06-29T03:29:46.432Z,71.70
2018-06-29T03:32:14.391Z,71.70
2018-06-29T03:34:42.345Z,71.70
2018-06-29T03:37:09.968Z,71.60
2018-06-29T03:39:37.545Z,71.70
2018-06-29T03:42:05.263Z,71.50
2018-06-29T03:44:32.848Z,71.60
2018-06-29T03:47:00.665Z,71.40
2018-06-29T03:49:28.254Z,71.60
2018-06-29T03:51:55.761Z,71.70
2018-06-29T03:54:23.366Z,71.70
2018-06-29T03:56:50.889Z,71.80
2018-06-29T03:59:18.428Z,71.80
2018-06-29T04:01:46.005Z,71.90
2018-06-29T04:04:13.641Z,71.90
2018-06-29T04:06:41.261Z,72.00
2018-06-29T04:09:10.319Z,71.70
2018-06-29T04:11:37.879Z,72.00
2018-06-29T04:14:05.433Z,72.00
2018-06-29T04:16:33.037Z,72.00
2018-06-29T04:19:00.557Z,71.90
2018-06-29T04:21:28.119Z,71.90
2018-06-29T04:23:55.719Z,71.90
2018-06-29T04:26:23.307Z,71.80
2018-06-29T04:28:50.835Z,71.90
2018-06-29T04:31:18.465Z,71.90
2018-06-29T04:33:46.009Z,71.80
2018-06-29T04:36:13.617Z,71.80
2018-06-29T04:38:41.177Z,71.80
2018-06-29T04:41:09.099Z,71.70
2018-06-29T04:43:36.687Z,71.70
2018-06-29T04:46:04.350Z,71.70
2018-06-29T04:48:31.953Z,71.60
2018-06-29T04:50:59.593Z,71.30
2018-06-29T04:53:27.291Z,71.30
2018-06-29T04:55:54.869Z,71.40
2018-06-29T04:58:22.446Z,71.50
2018-06-29T05:00:50.495Z,71.20
2018-06-29T05:03:18.057Z,71.00
2018-06-29T05:05:45.613Z,71.10
2018-06-29T05:08:13.205Z,71.10
2018-06-29T05:10:40.841Z,70.90
2018-06-29T05:13:08.609Z,71.00
2018-06-29T05:15:36.619Z,71.10
2018-06-29T05:18:04.377Z,71.10
2018-06-29T05:20:31.934Z,71.00
2018-06-29T05:22:59.541Z,70.70
2018-06-29T05:25:27.141Z,70.40
2018-06-29T05:27:54.725Z,70.30
2018-06-29T05:30:22.311Z,70.30
2018-06-29T05:32:49.909Z,70.20
2018-06-29T05:35:17.534Z,70.10
2018-06-29T05:37:45.255Z,70.10
2018-06-29T05:40:12.858Z,69.90
2018-06-29T05:42:40.508Z,69.70
2018-06-29T05:45:08.188Z,69.40
2018-06-29T05:47:35.772Z,68.20
2018-06-29T05:50:03.806Z,67.00
2018-06-29T05:52:31.504Z,65.90
2018-06-29T05:54:59.080Z,64.40
2018-06-29T05:57:26.702Z,62.50
2018-06-29T05:59:54.420Z,61.40
2018-06-29T06:02:22.078Z,60.40
2018-06-29T06:04:49.702Z,58.60
2018-06-29T06:07:17.316Z,57.50
2018-06-29T06:09:44.928Z,56.10
2018-06-29T06:12:12.596Z,55.40
2018-06-29T06:17:07.722Z,54.50
2018-06-29T06:19:46.919Z,54.20
2018-06-29T06:22:14.498Z,52.90
2018-06-29T06:24:42.134Z,52.40
2018-06-29T06:27:09.766Z,51.60
2018-06-29T06:29:37.328Z,50.90
2018-06-29T06:32:05.009Z,49.90
2018-06-29T06:34:32.591Z,49.00
2018-06-29T06:37:00.159Z,47.90
2018-06-29T06:39:27.728Z,46.80
2018-06-29T06:41:55.287Z,46.30
2018-06-29T06:44:22.816Z,45.70
2018-06-29T06:46:50.540Z,45.40
2018-06-29T06:49:18.165Z,44.10
2018-06-29T06:51:45.721Z,43.40
2018-06-29T06:54:13.437Z,42.70
2018-06-29T06:56:41.107Z,42.20
2018-06-29T06:59:09.011Z,41.80
2018-06-29T07:01:36.564Z,40.70
2018-06-29T07:04:04.340Z,40.20
2018-06-29T07:06:31.985Z,38.70
2018-06-29T07:08:59.534Z,38.20
2018-06-29T07:11:27.117Z,37.80
2018-06-29T07:13:54.711Z,36.90
2018-06-29T07:16:22.256Z,36.60
2018-06-29T07:18:49.882Z,36.40
2018-06-29T07:21:17.699Z,36.90
2018-06-29T07:23:45.317Z,38.50
2018-06-29T07:26:12.909Z,39.40
2018-06-29T07:28:40.559Z,40.50
2018-06-29T07:31:08.302Z,41.60
2018-06-29T07:33:35.958Z,42.10
2018-06-29T07:36:03.605Z,42.30
2018-06-29T07:38:31.225Z,43.10
2018-06-29T07:40:58.837Z,44.10
2018-06-29T07:43:26.424Z,44.50
2018-06-29T07:48:21.574Z,44.90
2018-06-29T07:50:49.161Z,45.10
2018-06-29T07:53:16.721Z,45.20
2018-06-29T07:55:44.341Z,45.30
2018-06-29T07:58:12.028Z,45.00
2018-06-29T08:00:39.751Z,44.60
2018-06-29T08:03:07.317Z,43.30
2018-06-29T08:05:34.973Z,42.60
2018-06-29T08:08:02.605Z,41.60
2018-06-29T08:10:30.274Z,41.30
2018-06-29T08:12:57.791Z,40.40
2018-06-29T08:15:25.354Z,39.80
2018-06-29T08:17:53.016Z,38.20
2018-06-29T08:20:20.651Z,35.20
2018-06-29T08:22:48.209Z,33.60
2018-06-29T08:25:16.604Z,33.10
2018-06-29T08:27:44.573Z,33.50
2018-06-29T08:30:13.137Z,33.10
2018-06-29T08:32:40.777Z,33.70
2018-06-29T08:35:09.615Z,33.30
2018-06-29T08:37:38.099Z,34.50
2018-06-29T08:40:06.595Z,35.20
2018-06-29T08:42:34.434Z,35.90
2018-06-29T08:45:02.032Z,36.80
2018-06-29T08:47:29.629Z,37.80
2018-06-29T08:49:57.525Z,38.60
2018-06-29T08:52:25.137Z,38.90
2018-06-29T08:54:52.840Z,39.60
2018-06-29T08:57:20.465Z,39.80
2018-06-29T08:59:48.022Z,40.10
2018-06-29T09:02:15.661Z,40.40
2018-06-29T09:04:43.213Z,40.40
2018-06-29T09:07:10.889Z,40.20
2018-06-29T09:09:38.525Z,40.50
2018-06-29T09:12:06.567Z,41.10
2018-06-29T09:14:34.157Z,41.40
2018-06-29T09:17:01.844Z,42.00
2018-06-29T09:19:29.434Z,42.20
2018-06-29T09:21:56.974Z,42.50
2018-06-29T09:24:24.597Z,42.50
2018-06-29T09:26:52.190Z,42.90
2018-06-29T09:29:19.754Z,42.70
2018-06-29T09:31:47.398Z,43.10
2018-06-29T09:34:15.038Z,43.50
2018-06-29T09:36:43.014Z,44.00
2018-06-29T09:39:12.370Z,44.60
2018-06-29T09:41:40.268Z,44.50
2018-06-29T09:44:07.860Z,45.60
2018-06-29T09:46:35.538Z,45.40
2018-06-29T09:49:03.331Z,45.30
2018-06-29T09:51:30.990Z,45.60
2018-06-29T09:53:58.645Z,45.70
2018-06-29T09:56:26.395Z,45.80
2018-06-29T09:58:54.410Z,45.40
2018-06-29T10:01:22.307Z,45.10
2018-06-29T10:03:49.812Z,45.00
2018-06-29T10:06:17.397Z,44.90
2018-06-29T10:08:45.041Z,44.90
2018-06-29T10:11:12.677Z,45.90
2018-06-29T10:13:40.270Z,46.10
2018-06-29T10:16:07.995Z,46.20
2018-06-29T10:18:35.569Z,46.20
2018-06-29T10:21:03.365Z,46.20
2018-06-29T10:23:30.973Z,45.90
2018-06-29T10:25:58.611Z,46.20
2018-06-29T10:28:26.475Z,46.10
2018-06-29T10:30:54.092Z,46.30
2018-06-29T10:33:21.635Z,46.30
2018-06-29T10:35:49.181Z,46.60
2018-06-29T10:38:16.769Z,46.20
2018-06-29T10:40:44.381Z,46.50
2018-06-29T10:43:11.940Z,46.40
2018-06-29T10:45:39.661Z,46.50
2018-06-29T10:48:07.216Z,46.50
2018-06-29T10:50:34.767Z,46.50
2018-06-29T10:53:02.383Z,46.60
2018-06-29T10:55:29.939Z,46.90
2018-06-29T11:00:24.995Z,46.80
2018-06-29T11:02:52.553Z,46.70
2018-06-29T11:05:20.132Z,46.70
2018-06-29T11:07:47.820Z,47.00
2018-06-29T11:10:15.427Z,46.70
2018-06-29T11:12:42.966Z,46.70
2018-06-29T11:15:10.568Z,46.90
2018-06-29T11:17:38.319Z,47.30
2018-06-29T11:20:05.921Z,47.00
2018-06-29T11:22:33.628Z,46.90
2018-06-29T11:25:01.219Z,47.10
2018-06-29T11:27:28.793Z,47.10
2018-06-29T11:29:56.395Z,47.10
2018-06-29T11:32:23.947Z,47.40
2018-06-29T11:34:51.501Z,47.40
2018-06-29T11:37:19.093Z,47.40
2018-06-29T11:39:46.653Z,47.50
2018-06-29T11:42:14.717Z,47.40
2018-06-29T11:44:42.375Z,46.80
2018-06-29T11:47:09.926Z,47.10
2018-06-29T11:49:37.521Z,47.00
2018-06-29T11:52:05.232Z,47.20
2018-06-29T11:54:32.918Z,47.30
2018-06-29T11:57:00.579Z,47.00
2018-06-29T11:59:28.187Z,46.50
2018-06-29T12:01:55.909Z,45.90
2018-06-29T12:04:23.525Z,46.00
2018-06-29T12:06:51.449Z,46.30
2018-06-29T12:09:19.025Z,46.30
2018-06-29T12:11:46.712Z,46.60
2018-06-29T12:14:14.385Z,46.20
2018-06-29T12:16:41.961Z,46.30
2018-06-29T12:19:09.517Z,47.00
2018-06-29T12:24:04.674Z,46.20
2018-06-29T12:26:32.213Z,46.30
2018-06-29T12:29:00.001Z,46.20
2018-06-29T12:31:27.638Z,46.20
2018-06-29T12:33:55.296Z,46.40
2018-06-29T12:36:22.899Z,46.70
2018-06-29T12:38:50.481Z,46.40
2018-06-29T12:41:18.130Z,46.20
2018-06-29T12:43:45.767Z,46.10
2018-06-29T12:46:13.390Z,45.90
2018-06-29T12:48:40.961Z,46.40
2018-06-29T12:51:08.577Z,46.60
2018-06-29T12:53:36.153Z,46.10
2018-06-29T12:56:03.809Z,45.90
2018-06-29T12:58:31.533Z,46.00
2018-06-29T13:00:59.122Z,45.90
2018-06-29T13:03:26.709Z,45.90
2018-06-29T13:05:54.326Z,46.30
2018-06-29T13:08:21.981Z,46.40
2018-06-29T13:10:49.567Z,46.10
2018-06-29T13:13:17.208Z,46.20
2018-06-29T13:15:44.891Z,46.60
2018-06-29T13:18:12.506Z,45.70
2018-06-29T13:20:40.166Z,46.10
2018-06-29T13:23:07.721Z,45.90
2018-06-29T13:25:35.314Z,45.80
2018-06-29T13:28:02.929Z,45.50
2018-06-29T13:32:58.022Z,45.60
2018-06-29T13:35:25.679Z,45.40
2018-06-29T13:37:57.726Z,45.60
2018-06-29T13:40:32.731Z,45.20
2018-06-29T13:43:00.761Z,45.20
2018-06-29T13:45:28.347Z,45.10
2018-06-29T13:47:56.761Z,45.40
2018-06-29T13:50:24.473Z,45.10
2018-06-29T13:52:52.201Z,45.20
2018-06-29T13:55:19.773Z,45.10
2018-06-29T13:57:47.336Z,45.30
2018-06-29T14:00:14.967Z,44.70
2018-06-29T14:02:42.601Z,44.50
2018-06-29T14:05:10.273Z,44.40
2018-06-29T14:07:37.837Z,44.10
2018-06-29T14:10:05.513Z,44.40
2018-06-29T14:12:33.125Z,44.40
2018-06-29T14:15:00.743Z,44.60
2018-06-29T14:17:28.384Z,44.70
2018-06-29T14:19:55.973Z,45.00
2018-06-29T14:22:23.596Z,45.30
2018-06-29T14:24:51.294Z,45.30
2018-06-29T14:27:18.965Z,45.20
2018-06-29T14:29:46.598Z,45.10
2018-06-29T14:32:14.209Z,45.30
2018-06-29T14:34:41.950Z,45.30
2018-06-29T14:37:09.582Z,44.90
2018-06-29T14:39:37.167Z,44.80
2018-06-29T14:42:04.797Z,45.70
2018-06-29T14:44:32.502Z,44.80
2018-06-29T14:47:00.194Z,44.90
2018-06-29T14:49:27.802Z,44.90
2018-06-29T14:51:55.395Z,44.70
2018-06-29T14:54:23.000Z,44.40
2018-06-29T14:56:50.810Z,44.70
2018-06-29T14:59:18.391Z,44.50
2018-06-29T15:01:46.048Z,44.40
2018-06-29T15:04:13.668Z,44.40
2018-06-29T15:06:41.554Z,44.20
2018-06-29T15:09:09.618Z,44.40
2018-06-29T15:11:37.762Z,44.60
2018-06-29T15:14:05.517Z,44.40
2018-06-29T15:16:33.204Z,44.20
2018-06-29T15:19:02.035Z,43.90
2018-06-29T15:21:29.623Z,43.90
2018-06-29T15:23:57.226Z,44.00
2018-06-29T15:26:24.847Z,44.00
2018-06-29T15:28:52.428Z,43.90
2018-06-29T15:31:20.236Z,43.80
2018-06-29T15:33:47.775Z,43.30
2018-06-29T15:36:15.485Z,43.40
2018-06-29T15:38:43.084Z,43.60
2018-06-29T15:41:10.721Z,43.60
2018-06-29T15:43:38.256Z,43.70
2018-06-29T15:46:05.991Z,43.90
2018-06-29T15:48:33.586Z,43.90
2018-06-29T15:51:01.147Z,43.70
2018-06-29T15:53:28.831Z,43.50
2018-06-29T15:55:56.479Z,43.60
2018-06-29T15:58:24.080Z,43.60
2018-06-29T16:00:51.733Z,43.80
2018-06-29T16:03:19.335Z,43.90
2018-06-29T16:05:47.237Z,43.90
2018-06-29T16:08:14.874Z,43.60
2018-06-29T16:10:42.432Z,43.10
2018-06-29T16:13:10.043Z,43.20
2018-06-29T16:15:37.783Z,43.00
2018-06-29T16:18:05.724Z,42.70
2018-06-29T16:20:33.259Z,42.50
2018-06-29T16:23:00.879Z,42.80
2018-06-29T16:25:28.450Z,42.40
2018-06-29T16:27:56.113Z,42.60
2018-06-29T16:30:23.747Z,42.80
2018-06-29T16:32:51.335Z,42.90
2018-06-29T16:35:19.211Z,43.10
2018-06-29T16:37:46.823Z,43.10
2018-06-29T16:40:14.439Z,43.10
2018-06-29T16:42:42.016Z,43.30
2018-06-29T16:45:09.727Z,43.10
2018-06-29T16:47:37.307Z,42.80
2018-06-29T16:50:05.149Z,42.90
2018-06-29T16:52:32.765Z,42.60
2018-06-29T16:55:00.401Z,42.70
2018-06-29T16:57:28.011Z,43.00
2018-06-29T16:59:55.713Z,42.60
2018-06-29T17:02:23.289Z,42.60
2018-06-29T17:04:50.929Z,42.50
2018-06-29T17:07:18.573Z,42.50
2018-06-29T17:09:46.155Z,42.50
2018-06-29T17:12:13.787Z,42.50
2018-06-29T17:14:41.511Z,42.40
2018-06-29T17:17:09.157Z,42.30
2018-06-29T17:19:36.755Z,43.10
2018-06-29T17:22:04.395Z,42.10
2018-06-29T17:24:32.003Z,42.00
2018-06-29T17:26:59.618Z,42.20
2018-06-29T17:29:27.302Z,42.30
2018-06-29T17:31:55.078Z,42.30
2018-06-29T17:34:22.907Z,42.30
2018-06-29T17:36:50.571Z,42.20
2018-06-29T17:39:18.145Z,42.60
2018-06-29T17:41:45.731Z,42.80
2018-06-29T17:44:13.449Z,43.00
2018-06-29T17:46:41.105Z,42.90
2018-06-29T17:49:08.689Z,43.00
2018-06-29T17:51:36.585Z,43.00
2018-06-29T17:54:04.225Z,43.10
2018-06-29T17:56:31.810Z,43.40
2018-06-29T17:58:59.441Z,43.60
2018-06-29T18:01:27.171Z,43.60
2018-06-29T18:03:54.837Z,43.70
2018-06-29T18:06:22.610Z,43.80
2018-06-29T18:08:50.229Z,44.10
2018-06-29T18:11:17.890Z,43.90
2018-06-29T18:13:45.553Z,43.90
2018-06-29T18:16:13.236Z,44.20
2018-06-29T18:18:41.018Z,44.20
2018-06-29T18:21:08.722Z,44.40
2018-06-29T18:23:36.342Z,44.60
2018-06-29T18:26:03.917Z,44.60
2018-06-29T18:28:31.600Z,44.70
2018-06-29T18:30:59.214Z,44.90
2018-06-29T18:33:26.764Z,45.00
2018-06-29T18:35:54.406Z,45.00
2018-06-29T18:38:22.228Z,45.10
2018-06-29T18:40:49.782Z,45.30
2018-06-29T18:43:17.368Z,45.30
2018-06-29T18:45:45.017Z,45.50
2018-06-29T18:48:12.710Z,45.80
2018-06-29T18:50:40.282Z,46.10
2018-06-29T18:53:07.938Z,46.30
2018-06-29T18:55:35.574Z,46.50
2018-06-29T18:58:03.200Z,46.80
2018-06-29T19:00:30.817Z,47.00
2018-06-29T19:02:58.508Z,47.20
2018-06-29T19:05:26.094Z,47.40
2018-06-29T19:07:53.664Z,47.60
2018-06-29T19:10:21.243Z,47.60
2018-06-29T19:12:48.898Z,47.90
2018-06-29T19:15:16.473Z,48.10
2018-06-29T19:17:44.019Z,48.20
2018-06-29T19:20:11.668Z,48.50
2018-06-29T19:22:39.243Z,48.70
2018-06-29T19:25:07.158Z,48.70
2018-06-29T19:27:34.789Z,48.80
2018-06-29T19:30:02.446Z,49.00
2018-06-29T19:32:30.074Z,49.30
2018-06-29T19:34:57.797Z,49.60
2018-06-29T19:37:25.568Z,49.80
2018-06-29T19:39:53.250Z,50.10
2018-06-29T19:42:20.844Z,50.10
2018-06-29T19:44:48.404Z,50.20
2018-06-29T19:47:15.981Z,50.60
2018-06-29T19:49:43.597Z,50.70
2018-06-29T19:52:11.236Z,50.90
2018-06-29T19:54:38.840Z,51.30
2018-06-29T19:57:06.836Z,51.60
2018-06-29T19:59:34.518Z,51.80
2018-06-29T20:02:02.123Z,51.90
2018-06-29T20:04:29.938Z,52.00
2018-06-29T20:06:57.549Z,52.00
2018-06-29T20:09:25.099Z,52.00
2018-06-29T20:11:52.691Z,52.20
2018-06-29T20:14:20.316Z,52.30
2018-06-29T20:16:47.888Z,52.70
2018-06-29T20:19:15.632Z,52.90
2018-06-29T20:21:43.194Z,53.30
2018-06-29T20:24:10.773Z,53.40
2018-06-29T20:26:38.469Z,53.50
2018-06-29T20:29:06.065Z,53.60
2018-06-29T20:31:33.702Z,53.70
2018-06-29T20:34:01.337Z,53.80
2018-06-29T20:36:28.890Z,54.00
2018-06-29T20:38:56.831Z,54.10
2018-06-29T20:41:24.919Z,54.20
2018-06-29T20:43:52.565Z,54.60
2018-06-29T20:46:20.156Z,54.80
2018-06-29T20:48:49.497Z,55.10
2018-06-29T20:51:17.167Z,55.30
2018-06-29T20:53:45.799Z,55.40
2018-06-29T20:56:13.485Z,55.70
2018-06-29T20:58:41.193Z,56.40
2018-06-29T21:01:08.970Z,56.50
2018-06-29T21:03:36.673Z,56.00
2018-06-29T21:06:04.249Z,56.10
2018-06-29T21:08:31.815Z,56.20
2018-06-29T21:10:59.501Z,56.40
2018-06-29T21:13:27.117Z,56.50
2018-06-29T21:15:54.699Z,56.70
2018-06-29T21:18:22.303Z,56.80
2018-06-29T21:20:49.843Z,56.90
2018-06-29T21:23:17.470Z,57.00
2018-06-29T21:25:45.129Z,56.90
2018-06-29T21:28:12.698Z,57.60
2018-06-29T21:30:40.406Z,57.30
2018-06-29T21:33:07.948Z,57.50
2018-06-29T21:35:35.549Z,57.00
2018-06-29T21:38:03.206Z,57.00
2018-06-29T21:40:31.373Z,57.10
2018-06-29T21:42:58.944Z,57.10
2018-06-29T21:45:26.461Z,56.90
2018-06-29T21:47:54.112Z,57.10
2018-06-29T21:50:21.701Z,57.20
2018-06-29T21:52:49.275Z,57.30
2018-06-29T21:55:16.867Z,57.40
2018-06-29T21:57:44.443Z,57.30
2018-06-29T22:00:13.149Z,57.30
2018-06-29T22:02:41.264Z,57.30
2018-06-29T22:05:09.678Z,57.30
2018-06-29T22:07:37.242Z,57.30
2018-06-29T22:10:05.961Z,57.30
2018-06-29T22:12:33.529Z,57.30
2018-06-29T22:15:01.162Z,57.20
2018-06-29T22:17:28.882Z,57.30
2018-06-29T22:19:56.750Z,57.50
2018-06-29T22:22:24.392Z,57.50
2018-06-29T22:24:52.007Z,58.00
2018-06-29T22:27:19.675Z,57.40
2018-06-29T22:29:47.242Z,57.40
2018-06-29T22:32:14.974Z,57.40
2018-06-29T22:34:42.542Z,57.50
2018-06-29T22:37:10.251Z,57.50
2018-06-29T22:39:37.827Z,57.60
2018-06-29T22:42:05.559Z,57.60
2018-06-29T22:44:33.397Z,57.60
2018-06-29T22:47:01.007Z,57.70
2018-06-29T22:49:28.594Z,57.70
2018-06-29T22:51:56.387Z,57.60
2018-06-29T22:54:24.171Z,57.80
2018-06-29T22:59:19.638Z,57.90
2018-06-29T23:01:47.293Z,57.90
2018-06-29T23:04:16.043Z,57.90
2018-06-29T23:09:12.067Z,58.00
2018-06-29T23:11:39.693Z,57.90
2018-06-29T23:14:07.615Z,57.90
2018-06-29T23:16:35.241Z,58.00
2018-06-29T23:19:02.845Z,57.90
2018-06-29T23:21:30.494Z,58.00
2018-06-29T23:23:58.075Z,58.00
2018-06-29T23:26:25.717Z,58.00
2018-06-29T23:28:53.347Z,58.00
2018-06-29T23:31:21.177Z,58.10
2018-06-29T23:33:48.757Z,58.30
2018-06-29T23:36:16.320Z,58.20
2018-06-29T23:38:44.133Z,58.30
2018-06-29T23:41:11.781Z,58.40
2018-06-29T23:43:39.503Z,58.50
2018-06-29T23:46:07.477Z,58.50
2018-06-29T23:48:35.087Z,58.70
2018-06-29T23:51:02.658Z,58.80
2018-06-29T23:53:30.327Z,58.90
2018-06-29T23:55:57.929Z,59.00
